sensor_id;sensor_type;location;lat;lon;timestamp;P1;durP1;ratioP1;P2;durP2;ratioP2
70303;SDS011;57712;48.752;11.348;2023-07-28T00:01:38;7.90;;;4.82;;
70303;SDS011;57712;48.752;11.348;2023-07-28T00:04:05;7.73;;;4.40;;
70303;SDS011;57712;48.752;11.348;2023-07-28T00:06:33;8.55;;;4.47;;
70303;SDS011;57712;48.752;11.348;2023-07-28T00:09:01;8.75;;;4.65;;
70303;SDS011;57712;48.752;11.348;2023-07-28T00:11:28;7.78;;;4.60;;
70303;SDS011;57712;48.752;11.348;2023-07-28T00:13:55;6.78;;;4.25;;
70303;SDS011;57712;48.752;11.348;2023-07-28T00:16:21;7.90;;;4.13;;
70303;SDS011;57712;48.752;11.348;2023-07-28T00:18:48;7.95;;;4.22;;
70303;SDS011;57712;48.752;11.348;2023-07-28T00:21:15;7.22;;;4.10;;
70303;SDS011;57712;48.752;11.348;2023-07-28T00:23:41;8.05;;;4.50;;
70303;SDS011;57712;48.752;11.348;2023-07-28T00:26:08;7.70;;;3.72;;
70303;SDS011;57712;48.752;11.348;2023-07-28T00:28:35;7.10;;;3.83;;
70303;SDS011;57712;48.752;11.348;2023-07-28T00:31:01;7.00;;;4.18;;
70303;SDS011;57712;48.752;11.348;2023-07-28T00:33:28;8.57;;;4.22;;
70303;SDS011;57712;48.752;11.348;2023-07-28T00:35:55;7.50;;;4.03;;
70303;SDS011;57712;48.752;11.348;2023-07-28T00:38:21;8.10;;;4.32;;
70303;SDS011;57712;48.752;11.348;2023-07-28T00:40:50;7.00;;;3.90;;
70303;SDS011;57712;48.752;11.348;2023-07-28T00:43:17;8.30;;;4.05;;
70303;SDS011;57712;48.752;11.348;2023-07-28T00:45:44;8.20;;;4.18;;
70303;SDS011;57712;48.752;11.348;2023-07-28T00:48:12;10.00;;;3.90;;
70303;SDS011;57712;48.752;11.348;2023-07-28T00:50:41;7.65;;;4.43;;
70303;SDS011;57712;48.752;11.348;2023-07-28T00:53:09;7.90;;;3.90;;
70303;SDS011;57712;48.752;11.348;2023-07-28T00:55:36;8.05;;;4.30;;
70303;SDS011;57712;48.752;11.348;2023-07-28T00:58:03;7.68;;;4.07;;
70303;SDS011;57712;48.752;11.348;2023-07-28T01:00:30;8.50;;;3.88;;
70303;SDS011;57712;48.752;11.348;2023-07-28T01:02:57;6.80;;;4.03;;
70303;SDS011;57712;48.752;11.348;2023-07-28T01:05:26;7.00;;;3.70;;
70303;SDS011;57712;48.752;11.348;2023-07-28T01:08:02;7.53;;;3.78;;
70303;SDS011;57712;48.752;11.348;2023-07-28T01:10:36;6.38;;;3.55;;
70303;SDS011;57712;48.752;11.348;2023-07-28T01:13:05;6.97;;;3.75;;
70303;SDS011;57712;48.752;11.348;2023-07-28T01:15:32;7.38;;;4.00;;
70303;SDS011;57712;48.752;11.348;2023-07-28T01:17:59;7.17;;;3.43;;
70303;SDS011;57712;48.752;11.348;2023-07-28T01:20:27;7.03;;;4.05;;
70303;SDS011;57712;48.752;11.348;2023-07-28T01:25:48;7.07;;;3.85;;
70303;SDS011;57712;48.752;11.348;2023-07-28T01:28:22;7.50;;;3.60;;
70303;SDS011;57712;48.752;11.348;2023-07-28T01:30:49;7.40;;;3.67;;
70303;SDS011;57712;48.752;11.348;2023-07-28T01:33:16;7.35;;;3.75;;
70303;SDS011;57712;48.752;11.348;2023-07-28T01:35:43;6.05;;;3.40;;
70303;SDS011;57712;48.752;11.348;2023-07-28T01:38:10;7.07;;;4.00;;
70303;SDS011;57712;48.752;11.348;2023-07-28T01:40:36;7.13;;;3.63;;
70303;SDS011;57712;48.752;11.348;2023-07-28T01:43:03;8.10;;;3.63;;
70303;SDS011;57712;48.752;11.348;2023-07-28T01:45:30;6.50;;;3.47;;
70303;SDS011;57712;48.752;11.348;2023-07-28T01:47:56;7.45;;;3.42;;
70303;SDS011;57712;48.752;11.348;2023-07-28T01:50:23;8.27;;;3.90;;
70303;SDS011;57712;48.752;11.348;2023-07-28T01:52:50;7.53;;;4.18;;
70303;SDS011;57712;48.752;11.348;2023-07-28T01:55:17;8.63;;;3.73;;
70303;SDS011;57712;48.752;11.348;2023-07-28T01:57:50;7.07;;;3.95;;
70303;SDS011;57712;48.752;11.348;2023-07-28T02:00:21;8.05;;;3.90;;
70303;SDS011;57712;48.752;11.348;2023-07-28T02:02:48;8.05;;;4.40;;
70303;SDS011;57712;48.752;11.348;2023-07-28T02:05:15;8.75;;;4.40;;
70303;SDS011;57712;48.752;11.348;2023-07-28T02:07:42;8.37;;;4.80;;
70303;SDS011;57712;48.752;11.348;2023-07-28T02:10:10;9.13;;;4.65;;
70303;SDS011;57712;48.752;11.348;2023-07-28T02:12:37;7.75;;;4.50;;
70303;SDS011;57712;48.752;11.348;2023-07-28T02:15:05;8.63;;;4.38;;
70303;SDS011;57712;48.752;11.348;2023-07-28T02:17:33;7.20;;;4.50;;
70303;SDS011;57712;48.752;11.348;2023-07-28T02:20:00;8.30;;;4.50;;
70303;SDS011;57712;48.752;11.348;2023-07-28T02:22:29;8.70;;;5.13;;
70303;SDS011;57712;48.752;11.348;2023-07-28T02:24:56;8.55;;;4.75;;
70303;SDS011;57712;48.752;11.348;2023-07-28T02:27:26;12.40;;;5.35;;
70303;SDS011;57712;48.752;11.348;2023-07-28T02:29:53;9.95;;;4.65;;
70303;SDS011;57712;48.752;11.348;2023-07-28T02:32:20;8.50;;;4.20;;
70303;SDS011;57712;48.752;11.348;2023-07-28T02:34:47;7.78;;;4.80;;
70303;SDS011;57712;48.752;11.348;2023-07-28T02:37:14;8.93;;;5.20;;
70303;SDS011;57712;48.752;11.348;2023-07-28T02:39:43;9.98;;;5.47;;
70303;SDS011;57712;48.752;11.348;2023-07-28T02:42:11;8.75;;;4.03;;
70303;SDS011;57712;48.752;11.348;2023-07-28T02:44:38;9.73;;;5.23;;
70303;SDS011;57712;48.752;11.348;2023-07-28T02:47:05;8.88;;;4.70;;
70303;SDS011;57712;48.752;11.348;2023-07-28T02:49:35;11.70;;;5.38;;
70303;SDS011;57712;48.752;11.348;2023-07-28T02:52:01;8.02;;;4.70;;
70303;SDS011;57712;48.752;11.348;2023-07-28T02:54:29;8.25;;;4.97;;
70303;SDS011;57712;48.752;11.348;2023-07-28T02:56:56;8.30;;;4.87;;
70303;SDS011;57712;48.752;11.348;2023-07-28T02:59:23;9.10;;;5.13;;
70303;SDS011;57712;48.752;11.348;2023-07-28T03:01:49;10.07;;;4.90;;
70303;SDS011;57712;48.752;11.348;2023-07-28T03:04:18;7.05;;;4.53;;
70303;SDS011;57712;48.752;11.348;2023-07-28T03:06:48;7.93;;;4.93;;
70303;SDS011;57712;48.752;11.348;2023-07-28T03:09:15;8.67;;;5.10;;
70303;SDS011;57712;48.752;11.348;2023-07-28T03:11:42;9.70;;;4.72;;
70303;SDS011;57712;48.752;11.348;2023-07-28T03:14:09;9.50;;;5.07;;
70303;SDS011;57712;48.752;11.348;2023-07-28T03:16:37;8.77;;;4.97;;
70303;SDS011;57712;48.752;11.348;2023-07-28T03:19:04;7.75;;;4.53;;
70303;SDS011;57712;48.752;11.348;2023-07-28T03:21:31;7.83;;;4.37;;
70303;SDS011;57712;48.752;11.348;2023-07-28T03:23:58;10.25;;;4.85;;
70303;SDS011;57712;48.752;11.348;2023-07-28T03:26:25;8.00;;;4.85;;
70303;SDS011;57712;48.752;11.348;2023-07-28T03:28:52;7.63;;;4.50;;
70303;SDS011;57712;48.752;11.348;2023-07-28T03:31:18;7.50;;;4.63;;
70303;SDS011;57712;48.752;11.348;2023-07-28T03:33:45;8.53;;;5.07;;
70303;SDS011;57712;48.752;11.348;2023-07-28T03:36:12;8.55;;;4.40;;
70303;SDS011;57712;48.752;11.348;2023-07-28T03:38:39;8.00;;;4.55;;
70303;SDS011;57712;48.752;11.348;2023-07-28T03:41:05;8.57;;;4.57;;
70303;SDS011;57712;48.752;11.348;2023-07-28T03:43:33;7.68;;;4.68;;
70303;SDS011;57712;48.752;11.348;2023-07-28T03:46:00;8.57;;;4.77;;
70303;SDS011;57712;48.752;11.348;2023-07-28T03:48:27;7.60;;;4.63;;
70303;SDS011;57712;48.752;11.348;2023-07-28T03:50:54;9.30;;;4.68;;
70303;SDS011;57712;48.752;11.348;2023-07-28T03:53:21;8.43;;;4.53;;
70303;SDS011;57712;48.752;11.348;2023-07-28T03:55:48;7.45;;;4.82;;
70303;SDS011;57712;48.752;11.348;2023-07-28T03:58:14;8.80;;;4.87;;
70303;SDS011;57712;48.752;11.348;2023-07-28T04:00:41;8.88;;;4.75;;
70303;SDS011;57712;48.752;11.348;2023-07-28T04:03:08;8.57;;;4.95;;
70303;SDS011;57712;48.752;11.348;2023-07-28T04:05:36;8.35;;;4.28;;
70303;SDS011;57712;48.752;11.348;2023-07-28T04:08:03;8.43;;;4.72;;
70303;SDS011;57712;48.752;11.348;2023-07-28T04:10:29;7.67;;;4.57;;
70303;SDS011;57712;48.752;11.348;2023-07-28T04:12:56;7.93;;;4.60;;
70303;SDS011;57712;48.752;11.348;2023-07-28T04:15:23;7.82;;;4.60;;
70303;SDS011;57712;48.752;11.348;2023-07-28T04:17:49;9.48;;;4.32;;
70303;SDS011;57712;48.752;11.348;2023-07-28T04:20:16;8.60;;;4.68;;
70303;SDS011;57712;48.752;11.348;2023-07-28T04:22:43;8.90;;;4.60;;
70303;SDS011;57712;48.752;11.348;2023-07-28T04:25:09;8.95;;;5.10;;
70303;SDS011;57712;48.752;11.348;2023-07-28T04:27:36;9.60;;;5.38;;
70303;SDS011;57712;48.752;11.348;2023-07-28T04:30:03;9.10;;;5.38;;
70303;SDS011;57712;48.752;11.348;2023-07-28T04:32:30;9.10;;;5.03;;
70303;SDS011;57712;48.752;11.348;2023-07-28T04:34:56;9.43;;;4.70;;
70303;SDS011;57712;48.752;11.348;2023-07-28T04:37:23;9.35;;;5.40;;
70303;SDS011;57712;48.752;11.348;2023-07-28T04:39:50;9.63;;;5.35;;
70303;SDS011;57712;48.752;11.348;2023-07-28T04:42:16;9.35;;;5.13;;
70303;SDS011;57712;48.752;11.348;2023-07-28T04:44:46;9.40;;;5.60;;
70303;SDS011;57712;48.752;11.348;2023-07-28T04:47:13;8.87;;;4.30;;
70303;SDS011;57712;48.752;11.348;2023-07-28T04:49:39;9.73;;;4.68;;
70303;SDS011;57712;48.752;11.348;2023-07-28T04:52:07;9.23;;;5.20;;
70303;SDS011;57712;48.752;11.348;2023-07-28T04:54:35;8.73;;;4.65;;
70303;SDS011;57712;48.752;11.348;2023-07-28T04:57:01;8.13;;;4.60;;
70303;SDS011;57712;48.752;11.348;2023-07-28T04:59:28;8.97;;;4.70;;
70303;SDS011;57712;48.752;11.348;2023-07-28T05:01:54;12.18;;;5.70;;
70303;SDS011;57712;48.752;11.348;2023-07-28T05:04:21;10.65;;;5.57;;
70303;SDS011;57712;48.752;11.348;2023-07-28T05:06:48;9.70;;;5.43;;
70303;SDS011;57712;48.752;11.348;2023-07-28T05:09:14;9.50;;;5.47;;
70303;SDS011;57712;48.752;11.348;2023-07-28T05:11:42;9.07;;;4.87;;
70303;SDS011;57712;48.752;11.348;2023-07-28T05:14:09;9.77;;;4.90;;
70303;SDS011;57712;48.752;11.348;2023-07-28T05:16:36;9.40;;;4.95;;
70303;SDS011;57712;48.752;11.348;2023-07-28T05:19:05;8.07;;;4.22;;
70303;SDS011;57712;48.752;11.348;2023-07-28T05:21:33;10.57;;;5.15;;
70303;SDS011;57712;48.752;11.348;2023-07-28T05:24:00;10.30;;;4.90;;
70303;SDS011;57712;48.752;11.348;2023-07-28T05:26:27;8.55;;;5.30;;
70303;SDS011;57712;48.752;11.348;2023-07-28T05:28:54;8.73;;;4.75;;
70303;SDS011;57712;48.752;11.348;2023-07-28T05:31:21;8.75;;;4.30;;
70303;SDS011;57712;48.752;11.348;2023-07-28T05:33:47;8.80;;;4.22;;
70303;SDS011;57712;48.752;11.348;2023-07-28T05:36:16;7.80;;;4.37;;
70303;SDS011;57712;48.752;11.348;2023-07-28T05:38:43;8.82;;;4.43;;
70303;SDS011;57712;48.752;11.348;2023-07-28T05:41:09;8.15;;;5.22;;
70303;SDS011;57712;48.752;11.348;2023-07-28T05:43:36;8.43;;;4.70;;
70303;SDS011;57712;48.752;11.348;2023-07-28T05:46:03;8.43;;;4.90;;
70303;SDS011;57712;48.752;11.348;2023-07-28T05:48:29;9.00;;;4.80;;
70303;SDS011;57712;48.752;11.348;2023-07-28T05:50:56;10.95;;;4.15;;
70303;SDS011;57712;48.752;11.348;2023-07-28T05:53:23;8.13;;;4.80;;
70303;SDS011;57712;48.752;11.348;2023-07-28T05:55:49;8.55;;;4.28;;
70303;SDS011;57712;48.752;11.348;2023-07-28T05:58:16;8.43;;;4.30;;
70303;SDS011;57712;48.752;11.348;2023-07-28T06:00:43;7.60;;;4.10;;
70303;SDS011;57712;48.752;11.348;2023-07-28T06:03:10;9.02;;;4.25;;
70303;SDS011;57712;48.752;11.348;2023-07-28T06:05:39;7.90;;;4.20;;
70303;SDS011;57712;48.752;11.348;2023-07-28T06:08:07;6.78;;;3.70;;
70303;SDS011;57712;48.752;11.348;2023-07-28T06:10:34;7.70;;;4.25;;
70303;SDS011;57712;48.752;11.348;2023-07-28T06:13:01;6.97;;;3.70;;
70303;SDS011;57712;48.752;11.348;2023-07-28T06:15:28;7.10;;;3.80;;
70303;SDS011;57712;48.752;11.348;2023-07-28T06:17:54;7.57;;;3.95;;
70303;SDS011;57712;48.752;11.348;2023-07-28T06:20:21;8.57;;;4.30;;
70303;SDS011;57712;48.752;11.348;2023-07-28T06:22:48;9.32;;;5.13;;
70303;SDS011;57712;48.752;11.348;2023-07-28T06:25:15;11.83;;;8.33;;
70303;SDS011;57712;48.752;11.348;2023-07-28T06:27:42;12.55;;;8.15;;
70303;SDS011;57712;48.752;11.348;2023-07-28T06:30:09;13.80;;;8.77;;
70303;SDS011;57712;48.752;11.348;2023-07-28T06:32:36;13.63;;;9.48;;
70303;SDS011;57712;48.752;11.348;2023-07-28T06:35:03;12.77;;;9.25;;
70303;SDS011;57712;48.752;11.348;2023-07-28T06:37:31;13.03;;;8.80;;
70303;SDS011;57712;48.752;11.348;2023-07-28T06:39:58;13.80;;;9.55;;
70303;SDS011;57712;48.752;11.348;2023-07-28T06:42:24;14.35;;;9.27;;
70303;SDS011;57712;48.752;11.348;2023-07-28T06:44:52;13.15;;;8.95;;
70303;SDS011;57712;48.752;11.348;2023-07-28T06:47:19;14.30;;;8.65;;
70303;SDS011;57712;48.752;11.348;2023-07-28T06:49:46;13.47;;;7.37;;
70303;SDS011;57712;48.752;11.348;2023-07-28T06:52:12;10.32;;;6.70;;
70303;SDS011;57712;48.752;11.348;2023-07-28T06:54:39;11.48;;;7.05;;
70303;SDS011;57712;48.752;11.348;2023-07-28T06:57:06;12.15;;;7.03;;
70303;SDS011;57712;48.752;11.348;2023-07-28T06:59:33;11.65;;;7.20;;
70303;SDS011;57712;48.752;11.348;2023-07-28T07:01:59;10.47;;;6.70;;
70303;SDS011;57712;48.752;11.348;2023-07-28T07:04:26;10.50;;;6.95;;
70303;SDS011;57712;48.752;11.348;2023-07-28T07:06:53;11.10;;;7.35;;
70303;SDS011;57712;48.752;11.348;2023-07-28T07:09:20;10.77;;;6.15;;
70303;SDS011;57712;48.752;11.348;2023-07-28T07:11:46;9.95;;;6.55;;
70303;SDS011;57712;48.752;11.348;2023-07-28T07:14:13;10.20;;;6.23;;
70303;SDS011;57712;48.752;11.348;2023-07-28T07:16:40;8.98;;;5.38;;
70303;SDS011;57712;48.752;11.348;2023-07-28T07:19:07;8.75;;;5.60;;
70303;SDS011;57712;48.752;11.348;2023-07-28T07:21:35;9.70;;;6.50;;
70303;SDS011;57712;48.752;11.348;2023-07-28T07:24:03;7.85;;;5.50;;
70303;SDS011;57712;48.752;11.348;2023-07-28T07:26:30;9.47;;;5.87;;
70303;SDS011;57712;48.752;11.348;2023-07-28T07:29:00;9.52;;;6.13;;
70303;SDS011;57712;48.752;11.348;2023-07-28T07:31:26;8.80;;;6.43;;
70303;SDS011;57712;48.752;11.348;2023-07-28T07:33:53;9.73;;;6.35;;
70303;SDS011;57712;48.752;11.348;2023-07-28T07:36:20;8.80;;;6.22;;
70303;SDS011;57712;48.752;11.348;2023-07-28T07:38:47;9.63;;;6.80;;
70303;SDS011;57712;48.752;11.348;2023-07-28T07:41:15;9.52;;;6.38;;
70303;SDS011;57712;48.752;11.348;2023-07-28T07:43:46;9.18;;;6.57;;
70303;SDS011;57712;48.752;11.348;2023-07-28T07:46:14;9.77;;;5.85;;
70303;SDS011;57712;48.752;11.348;2023-07-28T07:48:41;9.27;;;5.90;;
70303;SDS011;57712;48.752;11.348;2023-07-28T07:51:08;8.63;;;4.83;;
70303;SDS011;57712;48.752;11.348;2023-07-28T07:53:35;7.60;;;4.22;;
70303;SDS011;57712;48.752;11.348;2023-07-28T07:56:05;8.50;;;5.18;;
70303;SDS011;57712;48.752;11.348;2023-07-28T07:58:32;8.10;;;3.78;;
70303;SDS011;57712;48.752;11.348;2023-07-28T08:00:59;6.70;;;4.30;;
70303;SDS011;57712;48.752;11.348;2023-07-28T08:03:26;5.93;;;3.27;;
70303;SDS011;57712;48.752;11.348;2023-07-28T08:05:53;7.75;;;3.63;;
70303;SDS011;57712;48.752;11.348;2023-07-28T08:08:21;10.52;;;4.40;;
70303;SDS011;57712;48.752;11.348;2023-07-28T08:10:51;5.90;;;3.67;;
70303;SDS011;57712;48.752;11.348;2023-07-28T08:13:18;6.35;;;3.20;;
70303;SDS011;57712;48.752;11.348;2023-07-28T08:15:45;8.40;;;4.07;;
70303;SDS011;57712;48.752;11.348;2023-07-28T08:18:13;7.13;;;3.63;;
70303;SDS011;57712;48.752;11.348;2023-07-28T08:20:40;6.72;;;4.05;;
70303;SDS011;57712;48.752;11.348;2023-07-28T08:23:07;7.63;;;3.58;;
70303;SDS011;57712;48.752;11.348;2023-07-28T08:25:34;7.50;;;3.47;;
70303;SDS011;57712;48.752;11.348;2023-07-28T08:28:01;8.70;;;3.80;;
70303;SDS011;57712;48.752;11.348;2023-07-28T08:30:28;5.78;;;3.08;;
70303;SDS011;57712;48.752;11.348;2023-07-28T08:32:55;7.30;;;4.15;;
70303;SDS011;57712;48.752;11.348;2023-07-28T08:35:21;8.32;;;4.05;;
70303;SDS011;57712;48.752;11.348;2023-07-28T08:37:51;6.05;;;3.25;;
70303;SDS011;57712;48.752;11.348;2023-07-28T08:40:18;7.60;;;3.00;;
70303;SDS011;57712;48.752;11.348;2023-07-28T08:42:45;7.93;;;3.30;;
70303;SDS011;57712;48.752;11.348;2023-07-28T08:45:13;6.57;;;3.78;;
70303;SDS011;57712;48.752;11.348;2023-07-28T08:47:40;7.68;;;4.63;;
70303;SDS011;57712;48.752;11.348;2023-07-28T08:50:07;7.85;;;4.70;;
70303;SDS011;57712;48.752;11.348;2023-07-28T08:52:34;7.53;;;4.53;;
70303;SDS011;57712;48.752;11.348;2023-07-28T08:55:01;9.93;;;5.97;;
70303;SDS011;57712;48.752;11.348;2023-07-28T08:57:28;8.90;;;5.88;;
70303;SDS011;57712;48.752;11.348;2023-07-28T08:59:55;10.20;;;5.85;;
70303;SDS011;57712;48.752;11.348;2023-07-28T09:02:22;12.13;;;6.10;;
70303;SDS011;57712;48.752;11.348;2023-07-28T09:04:49;8.73;;;5.17;;
70303;SDS011;57712;48.752;11.348;2023-07-28T09:07:16;8.55;;;4.78;;
70303;SDS011;57712;48.752;11.348;2023-07-28T09:09:43;8.77;;;5.10;;
70303;SDS011;57712;48.752;11.348;2023-07-28T09:12:10;8.15;;;4.25;;
70303;SDS011;57712;48.752;11.348;2023-07-28T09:14:37;8.90;;;5.30;;
70303;SDS011;57712;48.752;11.348;2023-07-28T09:17:08;9.30;;;5.20;;
70303;SDS011;57712;48.752;11.348;2023-07-28T09:19:55;10.63;;;5.25;;
70303;SDS011;57712;48.752;11.348;2023-07-28T09:22:23;8.82;;;5.13;;
70303;SDS011;57712;48.752;11.348;2023-07-28T09:24:50;8.25;;;4.45;;
70303;SDS011;57712;48.752;11.348;2023-07-28T09:27:21;7.72;;;4.38;;
70303;SDS011;57712;48.752;11.348;2023-07-28T09:29:50;7.57;;;3.93;;
70303;SDS011;57712;48.752;11.348;2023-07-28T09:32:28;6.78;;;3.95;;
70303;SDS011;57712;48.752;11.348;2023-07-28T09:35:09;9.40;;;4.47;;
70303;SDS011;57712;48.752;11.348;2023-07-28T09:37:40;8.35;;;4.57;;
70303;SDS011;57712;48.752;11.348;2023-07-28T09:40:12;8.90;;;4.50;;
70303;SDS011;57712;48.752;11.348;2023-07-28T09:42:41;9.30;;;4.80;;
70303;SDS011;57712;48.752;11.348;2023-07-28T09:45:09;8.10;;;4.53;;
70303;SDS011;57712;48.752;11.348;2023-07-28T09:47:51;7.50;;;4.50;;
70303;SDS011;57712;48.752;11.348;2023-07-28T09:50:22;7.63;;;4.25;;
70303;SDS011;57712;48.752;11.348;2023-07-28T09:52:53;10.80;;;5.47;;
70303;SDS011;57712;48.752;11.348;2023-07-28T09:55:21;8.40;;;4.77;;
70303;SDS011;57712;48.752;11.348;2023-07-28T09:57:51;7.80;;;4.07;;
70303;SDS011;57712;48.752;11.348;2023-07-28T10:00:21;7.65;;;4.82;;
70303;SDS011;57712;48.752;11.348;2023-07-28T10:02:50;9.45;;;4.47;;
70303;SDS011;57712;48.752;11.348;2023-07-28T10:05:17;8.90;;;4.88;;
70303;SDS011;57712;48.752;11.348;2023-07-28T10:07:44;7.73;;;4.90;;
70303;SDS011;57712;48.752;11.348;2023-07-28T10:10:13;8.23;;;4.97;;
70303;SDS011;57712;48.752;11.348;2023-07-28T10:12:51;8.82;;;5.43;;
70303;SDS011;57712;48.752;11.348;2023-07-28T10:15:19;9.25;;;4.80;;
70303;SDS011;57712;48.752;11.348;2023-07-28T10:17:48;11.32;;;5.20;;
70303;SDS011;57712;48.752;11.348;2023-07-28T10:20:35;8.80;;;4.60;;
70303;SDS011;57712;48.752;11.348;2023-07-28T10:23:15;7.90;;;4.63;;
70303;SDS011;57712;48.752;11.348;2023-07-28T10:25:44;7.18;;;4.32;;
70303;SDS011;57712;48.752;11.348;2023-07-28T10:30:59;8.15;;;4.60;;
70303;SDS011;57712;48.752;11.348;2023-07-28T10:35:55;7.47;;;4.30;;
70303;SDS011;57712;48.752;11.348;2023-07-28T10:38:32;7.15;;;4.07;;
70303;SDS011;57712;48.752;11.348;2023-07-28T10:41:07;7.57;;;4.07;;
70303;SDS011;57712;48.752;11.348;2023-07-28T10:43:42;7.65;;;4.20;;
70303;SDS011;57712;48.752;11.348;2023-07-28T10:46:11;7.30;;;3.90;;
70303;SDS011;57712;48.752;11.348;2023-07-28T10:48:43;6.80;;;4.32;;
70303;SDS011;57712;48.752;11.348;2023-07-28T10:51:11;6.72;;;4.03;;
70303;SDS011;57712;48.752;11.348;2023-07-28T10:53:49;6.50;;;3.70;;
70303;SDS011;57712;48.752;11.348;2023-07-28T10:56:17;8.50;;;5.10;;
70303;SDS011;57712;48.752;11.348;2023-07-28T10:58:45;11.17;;;3.30;;
70303;SDS011;57712;48.752;11.348;2023-07-28T11:01:12;8.30;;;3.22;;
70303;SDS011;57712;48.752;11.348;2023-07-28T11:03:44;6.75;;;2.95;;
70303;SDS011;57712;48.752;11.348;2023-07-28T11:06:11;5.25;;;2.55;;
70303;SDS011;57712;48.752;11.348;2023-07-28T11:08:39;6.93;;;3.50;;
70303;SDS011;57712;48.752;11.348;2023-07-28T11:11:07;6.17;;;3.37;;
70303;SDS011;57712;48.752;11.348;2023-07-28T11:13:33;8.07;;;4.05;;
70303;SDS011;57712;48.752;11.348;2023-07-28T11:16:06;8.80;;;3.53;;
70303;SDS011;57712;48.752;11.348;2023-07-28T11:18:34;6.07;;;3.03;;
70303;SDS011;57712;48.752;11.348;2023-07-28T11:21:01;5.25;;;2.38;;
70303;SDS011;57712;48.752;11.348;2023-07-28T11:23:29;6.43;;;2.43;;
70303;SDS011;57712;48.752;11.348;2023-07-28T11:25:56;6.65;;;2.40;;
70303;SDS011;57712;48.752;11.348;2023-07-28T11:28:22;5.40;;;2.58;;
70303;SDS011;57712;48.752;11.348;2023-07-28T11:30:49;6.13;;;2.53;;
70303;SDS011;57712;48.752;11.348;2023-07-28T11:33:16;6.35;;;2.67;;
70303;SDS011;57712;48.752;11.348;2023-07-28T11:35:43;6.70;;;2.33;;
70303;SDS011;57712;48.752;11.348;2023-07-28T11:38:11;5.40;;;2.50;;
70303;SDS011;57712;48.752;11.348;2023-07-28T11:40:40;5.53;;;2.63;;
70303;SDS011;57712;48.752;11.348;2023-07-28T11:43:07;6.18;;;2.38;;
70303;SDS011;57712;48.752;11.348;2023-07-28T11:45:34;6.10;;;3.05;;
70303;SDS011;57712;48.752;11.348;2023-07-28T11:48:05;5.43;;;2.43;;
70303;SDS011;57712;48.752;11.348;2023-07-28T11:50:40;5.88;;;2.60;;
70303;SDS011;57712;48.752;11.348;2023-07-28T11:53:08;7.18;;;2.70;;
70303;SDS011;57712;48.752;11.348;2023-07-28T11:55:36;6.20;;;2.83;;
70303;SDS011;57712;48.752;11.348;2023-07-28T11:58:04;4.95;;;2.58;;
70303;SDS011;57712;48.752;11.348;2023-07-28T12:00:34;5.10;;;2.90;;
70303;SDS011;57712;48.752;11.348;2023-07-28T12:03:06;4.35;;;2.05;;
70303;SDS011;57712;48.752;11.348;2023-07-28T12:05:38;4.82;;;2.25;;
70303;SDS011;57712;48.752;11.348;2023-07-28T12:08:09;7.75;;;2.80;;
70303;SDS011;57712;48.752;11.348;2023-07-28T12:10:35;4.47;;;2.00;;
70303;SDS011;57712;48.752;11.348;2023-07-28T12:13:07;4.93;;;1.97;;
70303;SDS011;57712;48.752;11.348;2023-07-28T12:15:40;5.20;;;2.13;;
70303;SDS011;57712;48.752;11.348;2023-07-28T12:18:13;5.07;;;2.33;;
70303;SDS011;57712;48.752;11.348;2023-07-28T12:20:45;4.78;;;1.60;;
70303;SDS011;57712;48.752;11.348;2023-07-28T12:23:14;5.00;;;1.45;;
70303;SDS011;57712;48.752;11.348;2023-07-28T12:25:45;5.43;;;1.73;;
70303;SDS011;57712;48.752;11.348;2023-07-28T12:28:12;4.05;;;1.63;;
70303;SDS011;57712;48.752;11.348;2023-07-28T12:30:42;4.75;;;2.25;;
70303;SDS011;57712;48.752;11.348;2023-07-28T12:33:10;4.00;;;1.65;;
70303;SDS011;57712;48.752;11.348;2023-07-28T12:35:39;4.22;;;1.70;;
70303;SDS011;57712;48.752;11.348;2023-07-28T12:38:09;3.60;;;1.30;;
70303;SDS011;57712;48.752;11.348;2023-07-28T12:40:39;3.67;;;0.98;;
70303;SDS011;57712;48.752;11.348;2023-07-28T12:43:08;3.80;;;1.73;;
70303;SDS011;57712;48.752;11.348;2023-07-28T12:45:56;4.00;;;1.25;;
70303;SDS011;57712;48.752;11.348;2023-07-28T12:48:26;3.50;;;1.20;;
70303;SDS011;57712;48.752;11.348;2023-07-28T12:50:53;3.40;;;1.00;;
70303;SDS011;57712;48.752;11.348;2023-07-28T12:53:22;5.10;;;1.25;;
70303;SDS011;57712;48.752;11.348;2023-07-28T12:55:49;3.75;;;1.73;;
70303;SDS011;57712;48.752;11.348;2023-07-28T12:58:19;3.63;;;1.40;;
70303;SDS011;57712;48.752;11.348;2023-07-28T13:00:49;3.60;;;1.52;;
70303;SDS011;57712;48.752;11.348;2023-07-28T13:03:18;4.13;;;1.80;;
70303;SDS011;57712;48.752;11.348;2023-07-28T13:05:45;3.53;;;1.20;;
70303;SDS011;57712;48.752;11.348;2023-07-28T13:08:15;3.70;;;1.58;;
70303;SDS011;57712;48.752;11.348;2023-07-28T13:10:42;5.07;;;1.85;;
70303;SDS011;57712;48.752;11.348;2023-07-28T13:13:12;4.43;;;1.63;;
70303;SDS011;57712;48.752;11.348;2023-07-28T13:15:40;4.30;;;1.30;;
70303;SDS011;57712;48.752;11.348;2023-07-28T13:18:07;3.75;;;1.23;;
70303;SDS011;57712;48.752;11.348;2023-07-28T13:20:34;3.92;;;1.73;;
70303;SDS011;57712;48.752;11.348;2023-07-28T13:23:01;4.07;;;1.95;;
70303;SDS011;57712;48.752;11.348;2023-07-28T13:25:28;3.78;;;1.27;;
70303;SDS011;57712;48.752;11.348;2023-07-28T13:27:55;4.00;;;1.30;;
70303;SDS011;57712;48.752;11.348;2023-07-28T13:30:21;3.58;;;1.45;;
70303;SDS011;57712;48.752;11.348;2023-07-28T13:32:48;3.90;;;1.17;;
70303;SDS011;57712;48.752;11.348;2023-07-28T13:35:15;3.95;;;1.50;;
70303;SDS011;57712;48.752;11.348;2023-07-28T13:37:43;4.28;;;1.73;;
70303;SDS011;57712;48.752;11.348;2023-07-28T13:40:10;4.00;;;1.53;;
70303;SDS011;57712;48.752;11.348;2023-07-28T13:42:38;3.47;;;1.30;;
70303;SDS011;57712;48.752;11.348;2023-07-28T13:45:06;4.10;;;1.45;;
70303;SDS011;57712;48.752;11.348;2023-07-28T13:47:34;4.00;;;1.38;;
70303;SDS011;57712;48.752;11.348;2023-07-28T13:50:01;4.18;;;2.03;;
70303;SDS011;57712;48.752;11.348;2023-07-28T13:52:28;3.77;;;1.63;;
70303;SDS011;57712;48.752;11.348;2023-07-28T13:54:55;4.00;;;1.45;;
70303;SDS011;57712;48.752;11.348;2023-07-28T13:57:25;3.80;;;1.70;;
70303;SDS011;57712;48.752;11.348;2023-07-28T13:59:52;4.00;;;1.60;;
70303;SDS011;57712;48.752;11.348;2023-07-28T14:02:19;5.03;;;1.52;;
70303;SDS011;57712;48.752;11.348;2023-07-28T14:04:45;4.93;;;1.50;;
70303;SDS011;57712;48.752;11.348;2023-07-28T14:07:12;4.28;;;2.03;;
70303;SDS011;57712;48.752;11.348;2023-07-28T14:09:39;4.30;;;1.92;;
70303;SDS011;57712;48.752;11.348;2023-07-28T14:12:08;6.05;;;1.98;;
70303;SDS011;57712;48.752;11.348;2023-07-28T14:14:35;3.95;;;2.03;;
70303;SDS011;57712;48.752;11.348;2023-07-28T14:17:02;3.83;;;1.43;;
70303;SDS011;57712;48.752;11.348;2023-07-28T14:19:29;4.35;;;1.63;;
70303;SDS011;57712;48.752;11.348;2023-07-28T14:21:56;4.03;;;1.90;;
70303;SDS011;57712;48.752;11.348;2023-07-28T14:24:23;4.88;;;1.70;;
70303;SDS011;57712;48.752;11.348;2023-07-28T14:26:49;4.45;;;1.80;;
70303;SDS011;57712;48.752;11.348;2023-07-28T14:29:16;6.93;;;1.53;;
70303;SDS011;57712;48.752;11.348;2023-07-28T14:31:43;3.83;;;1.40;;
70303;SDS011;57712;48.752;11.348;2023-07-28T14:34:10;4.68;;;2.00;;
70303;SDS011;57712;48.752;11.348;2023-07-28T14:36:38;5.25;;;1.90;;
70303;SDS011;57712;48.752;11.348;2023-07-28T14:39:05;6.20;;;1.77;;
70303;SDS011;57712;48.752;11.348;2023-07-28T14:41:32;4.47;;;1.73;;
70303;SDS011;57712;48.752;11.348;2023-07-28T14:43:59;4.25;;;1.30;;
70303;SDS011;57712;48.752;11.348;2023-07-28T14:46:26;4.65;;;1.73;;